Terminal Aerodrome Forecast
Issued by NWS

Home | Current Version | Previous Version | Text Only | Print | Product List | Glossary On
Versions: 1 2 3 4 5 6 7 8 9 10 11 12 13 14 15 16 17 18 19 20
474
FTUS46 KLOX 131816 AAA
TAFSBA
TAF AMD
KSBA 131816Z 1318/1418 16006KT 6SM BR VCFG SCT001
      TEMPO 1318/1320 1SM BR BKN001
     FM132100 23008KT P6SM SKC
     FM140300 36007KT P6SM SKC WS015/03025KT
     FM141400 36005KT P6SM SKC=

USA.gov is the U.S. government's official web portal to all federal, state and local government web resources and services.